sensor_id;sensor_type;location;lat;lon;timestamp;pressure;altitude;pressure_sealevel;temperature;humidity
66547;BME280;53400;50.364;14.874;2023-03-01T00:01:14;99852.75;;;-2.23;85.19
66547;BME280;53400;50.364;14.874;2023-03-01T00:03:40;99855.38;;;-2.23;83.87
66547;BME280;53400;50.364;14.874;2023-03-01T00:06:06;99852.16;;;-1.96;83.20
66547;BME280;53400;50.364;14.874;2023-03-01T00:08:33;99849.75;;;-2.09;82.18
66547;BME280;53400;50.364;14.874;2023-03-01T00:11:04;99850.75;;;-2.41;83.13
66547;BME280;53400;50.364;14.874;2023-03-01T00:13:31;99854.16;;;-2.50;83.23
66547;BME280;53400;50.364;14.874;2023-03-01T00:15:58;99839.81;;;-2.77;84.45
66547;BME280;53400;50.364;14.874;2023-03-01T00:18:24;99844.81;;;-2.94;84.67
66547;BME280;53400;50.364;14.874;2023-03-01T00:20:51;99844.59;;;-3.24;85.46
66547;BME280;53400;50.364;14.874;2023-03-01T00:23:17;99841.91;;;-3.33;86.33
66547;BME280;53400;50.364;14.874;2023-03-01T00:25:43;99849.38;;;-3.29;86.92
66547;BME280;53400;50.364;14.874;2023-03-01T00:28:09;99839.81;;;-3.18;86.65
66547;BME280;53400;50.364;14.874;2023-03-01T00:30:35;99839.25;;;-3.22;87.33
66547;BME280;53400;50.364;14.874;2023-03-01T00:33:02;99841.09;;;-3.13;86.52
66547;BME280;53400;50.364;14.874;2023-03-01T00:35:28;99835.81;;;-3.22;86.49
66547;BME280;53400;50.364;14.874;2023-03-01T00:37:54;99833.53;;;-3.27;86.53
66547;BME280;53400;50.364;14.874;2023-03-01T00:40:23;99828.56;;;-3.30;86.82
66547;BME280;53400;50.364;14.874;2023-03-01T00:42:49;99828.88;;;-3.24;86.66
66547;BME280;53400;50.364;14.874;2023-03-01T00:45:16;99825.69;;;-3.27;86.60
66547;BME280;53400;50.364;14.874;2023-03-01T00:47:42;99826.31;;;-3.35;86.95
66547;BME280;53400;50.364;14.874;2023-03-01T00:50:11;99825.94;;;-3.30;86.37
66547;BME280;53400;50.364;14.874;2023-03-01T00:52:37;99820.25;;;-3.35;86.66
66547;BME280;53400;50.364;14.874;2023-03-01T00:55:04;99810.19;;;-3.51;87.65
66547;BME280;53400;50.364;14.874;2023-03-01T00:57:30;99817.19;;;-3.40;88.42
66547;BME280;53400;50.364;14.874;2023-03-01T00:59:56;99820.13;;;-3.34;88.37
66547;BME280;53400;50.364;14.874;2023-03-01T01:02:22;99816.69;;;-3.34;88.22
66547;BME280;53400;50.364;14.874;2023-03-01T01:04:48;99822.31;;;-3.18;87.57
66547;BME280;53400;50.364;14.874;2023-03-01T01:07:16;99808.06;;;-3.04;86.88
66547;BME280;53400;50.364;14.874;2023-03-01T01:09:42;99811.47;;;-3.13;86.53
66547;BME280;53400;50.364;14.874;2023-03-01T01:12:08;99817.88;;;-3.17;87.86
66547;BME280;53400;50.364;14.874;2023-03-01T01:14:35;99815.16;;;-3.16;87.79
66547;BME280;53400;50.364;14.874;2023-03-01T01:17:01;99818.56;;;-3.04;87.47
66547;BME280;53400;50.364;14.874;2023-03-01T01:19:27;99816.19;;;-3.07;87.47
66547;BME280;53400;50.364;14.874;2023-03-01T01:21:53;99821.03;;;-3.24;87.52
66547;BME280;53400;50.364;14.874;2023-03-01T01:24:20;99819.06;;;-3.31;87.90
66547;BME280;53400;50.364;14.874;2023-03-01T01:26:46;99816.59;;;-3.23;87.67
66547;BME280;53400;50.364;14.874;2023-03-01T01:29:12;99815.66;;;-3.22;87.85
66547;BME280;53400;50.364;14.874;2023-03-01T01:31:39;99809.34;;;-3.19;88.96
66547;BME280;53400;50.364;14.874;2023-03-01T01:34:07;99817.13;;;-3.08;88.51
66547;BME280;53400;50.364;14.874;2023-03-01T01:36:34;99807.34;;;-3.06;87.22
66547;BME280;53400;50.364;14.874;2023-03-01T01:39:01;99800.97;;;-3.13;87.07
66547;BME280;53400;50.364;14.874;2023-03-01T01:41:29;99805.75;;;-3.18;87.70
66547;BME280;53400;50.364;14.874;2023-03-01T01:44:16;99814.13;;;-3.25;87.53
66547;BME280;53400;50.364;14.874;2023-03-01T01:46:46;99806.28;;;-3.25;87.19
66547;BME280;53400;50.364;14.874;2023-03-01T01:49:20;99796.75;;;-3.26;87.22
66547;BME280;53400;50.364;14.874;2023-03-01T01:51:51;99801.75;;;-3.22;87.42
66547;BME280;53400;50.364;14.874;2023-03-01T01:54:23;99791.16;;;-3.32;87.51
66547;BME280;53400;50.364;14.874;2023-03-01T01:56:55;99794.56;;;-3.41;88.56
66547;BME280;53400;50.364;14.874;2023-03-01T01:59:22;99793.09;;;-3.34;88.08
66547;BME280;53400;50.364;14.874;2023-03-01T02:01:52;99791.81;;;-3.40;88.56
66547;BME280;53400;50.364;14.874;2023-03-01T02:04:18;99784.75;;;-3.28;88.76
66547;BME280;53400;50.364;14.874;2023-03-01T02:06:48;99786.13;;;-3.45;89.33
66547;BME280;53400;50.364;14.874;2023-03-01T02:09:18;99782.34;;;-3.52;89.14
66547;BME280;53400;50.364;14.874;2023-03-01T02:11:47;99779.56;;;-3.39;89.11
66547;BME280;53400;50.364;14.874;2023-03-01T02:14:16;99784.53;;;-3.36;88.54
66547;BME280;53400;50.364;14.874;2023-03-01T02:16:42;99773.75;;;-3.43;88.46
66547;BME280;53400;50.364;14.874;2023-03-01T02:19:10;99777.16;;;-3.63;88.86
66547;BME280;53400;50.364;14.874;2023-03-01T02:21:46;99783.03;;;-3.71;90.00
66547;BME280;53400;50.364;14.874;2023-03-01T02:24:25;99778.63;;;-3.71;90.60
66547;BME280;53400;50.364;14.874;2023-03-01T02:26:55;99775.88;;;-3.69;90.71
66547;BME280;53400;50.364;14.874;2023-03-01T02:29:23;99778.44;;;-3.58;89.91
66547;BME280;53400;50.364;14.874;2023-03-01T02:31:52;99779.03;;;-3.54;89.97
66547;BME280;53400;50.364;14.874;2023-03-01T02:34:23;99775.69;;;-3.56;89.95
66547;BME280;53400;50.364;14.874;2023-03-01T02:36:53;99780.59;;;-3.63;90.12
66547;BME280;53400;50.364;14.874;2023-03-01T02:39:24;99772.72;;;-3.84;91.15
66547;BME280;53400;50.364;14.874;2023-03-01T02:41:53;99774.91;;;-3.89;91.50
66547;BME280;53400;50.364;14.874;2023-03-01T02:44:20;99773.47;;;-3.93;92.00
66547;BME280;53400;50.364;14.874;2023-03-01T02:46:50;99772.38;;;-3.90;92.50
66547;BME280;53400;50.364;14.874;2023-03-01T02:49:24;99767.88;;;-3.88;92.33
66547;BME280;53400;50.364;14.874;2023-03-01T02:52:21;99772.47;;;-3.81;92.07
66547;BME280;53400;50.364;14.874;2023-03-01T02:54:51;99768.19;;;-3.82;91.90
66547;BME280;53400;50.364;14.874;2023-03-01T02:57:20;99766.41;;;-3.81;92.03
66547;BME280;53400;50.364;14.874;2023-03-01T02:59:48;99763.59;;;-3.69;91.37
66547;BME280;53400;50.364;14.874;2023-03-01T03:02:21;99771.72;;;-3.72;91.83
66547;BME280;53400;50.364;14.874;2023-03-01T03:05:03;99767.59;;;-3.74;91.37
66547;BME280;53400;50.364;14.874;2023-03-01T03:07:32;99768.09;;;-3.80;91.58
66547;BME280;53400;50.364;14.874;2023-03-01T03:10:00;99771.22;;;-3.65;90.79
66547;BME280;53400;50.364;14.874;2023-03-01T03:12:26;99771.69;;;-3.60;89.99
66547;BME280;53400;50.364;14.874;2023-03-01T03:14:52;99769.88;;;-3.60;90.08
66547;BME280;53400;50.364;14.874;2023-03-01T03:17:19;99764.78;;;-3.61;89.27
66547;BME280;53400;50.364;14.874;2023-03-01T03:19:45;99761.13;;;-3.70;89.94
66547;BME280;53400;50.364;14.874;2023-03-01T03:22:11;99758.63;;;-3.72;90.02
66547;BME280;53400;50.364;14.874;2023-03-01T03:24:37;99763.50;;;-3.67;89.37
66547;BME280;53400;50.364;14.874;2023-03-01T03:27:03;99756.69;;;-3.58;89.11
66547;BME280;53400;50.364;14.874;2023-03-01T03:29:29;99752.00;;;-3.55;88.01
66547;BME280;53400;50.364;14.874;2023-03-01T03:31:55;99742.03;;;-3.61;88.77
66547;BME280;53400;50.364;14.874;2023-03-01T03:34:22;99732.78;;;-3.65;89.06
66547;BME280;53400;50.364;14.874;2023-03-01T03:36:53;99732.53;;;-3.62;89.00
66547;BME280;53400;50.364;14.874;2023-03-01T03:39:22;99729.41;;;-3.77;89.72
66547;BME280;53400;50.364;14.874;2023-03-01T03:41:47;99734.31;;;-3.83;89.40
66547;BME280;53400;50.364;14.874;2023-03-01T03:44:13;99731.09;;;-3.87;89.81
66547;BME280;53400;50.364;14.874;2023-03-01T03:46:40;99731.47;;;-3.92;89.18
66547;BME280;53400;50.364;14.874;2023-03-01T03:49:06;99723.56;;;-4.01;90.55
66547;BME280;53400;50.364;14.874;2023-03-01T03:51:33;99726.28;;;-4.03;90.78
66547;BME280;53400;50.364;14.874;2023-03-01T03:53:59;99721.94;;;-4.13;90.74
66547;BME280;53400;50.364;14.874;2023-03-01T03:56:26;99718.69;;;-4.06;90.92
66547;BME280;53400;50.364;14.874;2023-03-01T03:58:52;99724.25;;;-3.99;90.68
66547;BME280;53400;50.364;14.874;2023-03-01T04:01:18;99719.72;;;-3.97;90.94
66547;BME280;53400;50.364;14.874;2023-03-01T04:03:44;99716.31;;;-4.09;91.49
66547;BME280;53400;50.364;14.874;2023-03-01T04:06:13;99721.78;;;-4.12;91.64
66547;BME280;53400;50.364;14.874;2023-03-01T04:08:41;99723.81;;;-4.16;91.53
66547;BME280;53400;50.364;14.874;2023-03-01T04:11:07;99721.19;;;-4.04;91.86
66547;BME280;53400;50.364;14.874;2023-03-01T04:13:54;99721.44;;;-4.07;91.89
66547;BME280;53400;50.364;14.874;2023-03-01T04:16:21;99723.59;;;-4.12;92.11
66547;BME280;53400;50.364;14.874;2023-03-01T04:18:47;99725.38;;;-4.13;92.46
66547;BME280;53400;50.364;14.874;2023-03-01T04:21:13;99723.09;;;-4.06;91.96
66547;BME280;53400;50.364;14.874;2023-03-01T04:23:41;99730.34;;;-4.10;91.34
66547;BME280;53400;50.364;14.874;2023-03-01T04:26:08;99724.63;;;-4.04;92.01
66547;BME280;53400;50.364;14.874;2023-03-01T04:28:35;99724.75;;;-4.05;91.91
66547;BME280;53400;50.364;14.874;2023-03-01T04:31:04;99728.56;;;-4.09;91.26
66547;BME280;53400;50.364;14.874;2023-03-01T04:33:38;99732.97;;;-4.10;91.35
66547;BME280;53400;50.364;14.874;2023-03-01T04:36:05;99727.03;;;-4.12;91.23
66547;BME280;53400;50.364;14.874;2023-03-01T04:38:34;99726.31;;;-4.14;91.85
66547;BME280;53400;50.364;14.874;2023-03-01T04:41:02;99731.91;;;-4.07;91.56
66547;BME280;53400;50.364;14.874;2023-03-01T04:43:29;99728.81;;;-4.12;91.71
66547;BME280;53400;50.364;14.874;2023-03-01T04:45:54;99727.84;;;-4.11;91.39
66547;BME280;53400;50.364;14.874;2023-03-01T04:48:25;99732.84;;;-4.08;92.08
66547;BME280;53400;50.364;14.874;2023-03-01T04:50:51;99726.91;;;-4.10;91.27
66547;BME280;53400;50.364;14.874;2023-03-01T04:53:16;99726.28;;;-4.03;91.15
66547;BME280;53400;50.364;14.874;2023-03-01T04:55:44;99722.00;;;-4.04;90.68
66547;BME280;53400;50.364;14.874;2023-03-01T04:58:11;99723.81;;;-4.16;91.25
66547;BME280;53400;50.364;14.874;2023-03-01T05:00:37;99723.59;;;-4.12;91.77
66547;BME280;53400;50.364;14.874;2023-03-01T05:03:03;99728.34;;;-4.18;91.54
66547;BME280;53400;50.364;14.874;2023-03-01T05:05:31;99722.06;;;-4.26;91.83
66547;BME280;53400;50.364;14.874;2023-03-01T05:07:59;99723.69;;;-4.14;91.00
66547;BME280;53400;50.364;14.874;2023-03-01T05:10:27;99720.75;;;-4.21;91.16
66547;BME280;53400;50.364;14.874;2023-03-01T05:12:54;99718.38;;;-4.24;90.79
66547;BME280;53400;50.364;14.874;2023-03-01T05:15:25;99722.88;;;-4.15;90.06
66547;BME280;53400;50.364;14.874;2023-03-01T05:17:51;99722.19;;;-4.17;90.90
66547;BME280;53400;50.364;14.874;2023-03-01T05:20:17;99730.66;;;-4.35;91.24
66547;BME280;53400;50.364;14.874;2023-03-01T05:22:43;99734.72;;;-4.54;92.26
66547;BME280;53400;50.364;14.874;2023-03-01T05:25:09;99738.31;;;-4.55;92.23
66547;BME280;53400;50.364;14.874;2023-03-01T05:27:36;99733.31;;;-4.58;92.90
66547;BME280;53400;50.364;14.874;2023-03-01T05:30:02;99735.91;;;-4.47;93.14
66547;BME280;53400;50.364;14.874;2023-03-01T05:32:41;99733.06;;;-4.44;92.58
66547;BME280;53400;50.364;14.874;2023-03-01T05:35:09;99727.84;;;-4.44;92.80
66547;BME280;53400;50.364;14.874;2023-03-01T05:37:34;99732.81;;;-4.41;92.29
66547;BME280;53400;50.364;14.874;2023-03-01T05:40:01;99729.97;;;-4.49;91.92
66547;BME280;53400;50.364;14.874;2023-03-01T05:42:28;99727.34;;;-4.49;91.95
66547;BME280;53400;50.364;14.874;2023-03-01T05:44:54;99736.50;;;-4.54;92.00
66547;BME280;53400;50.364;14.874;2023-03-01T05:47:20;99729.72;;;-4.57;92.14
66547;BME280;53400;50.364;14.874;2023-03-01T05:49:48;99737.47;;;-4.55;92.86
66547;BME280;53400;50.364;14.874;2023-03-01T05:52:15;99737.09;;;-4.51;92.40
66547;BME280;53400;50.364;14.874;2023-03-01T05:54:41;99733.31;;;-4.47;92.09
66547;BME280;53400;50.364;14.874;2023-03-01T05:57:07;99739.38;;;-4.46;91.98
66547;BME280;53400;50.364;14.874;2023-03-01T05:59:33;99738.50;;;-4.35;91.04
66547;BME280;53400;50.364;14.874;2023-03-01T06:01:59;99749.91;;;-4.36;91.82
66547;BME280;53400;50.364;14.874;2023-03-01T06:04:25;99750.78;;;-4.47;92.81
66547;BME280;53400;50.364;14.874;2023-03-01T06:06:52;99743.63;;;-4.45;93.74
66547;BME280;53400;50.364;14.874;2023-03-01T06:09:18;99741.97;;;-4.46;93.97
66547;BME280;53400;50.364;14.874;2023-03-01T06:11:44;99745.31;;;-4.44;93.76
66547;BME280;53400;50.364;14.874;2023-03-01T06:14:10;99747.72;;;-4.20;93.65
66547;BME280;53400;50.364;14.874;2023-03-01T06:16:40;99747.47;;;-4.06;93.25
66547;BME280;53400;50.364;14.874;2023-03-01T06:19:06;99754.00;;;-4.00;91.28
66547;BME280;53400;50.364;14.874;2023-03-01T06:21:32;99756.69;;;-3.90;91.88
66547;BME280;53400;50.364;14.874;2023-03-01T06:23:59;99748.91;;;-4.13;91.73
66547;BME280;53400;50.364;14.874;2023-03-01T06:26:25;99749.34;;;-3.97;92.27
66547;BME280;53400;50.364;14.874;2023-03-01T06:28:51;99751.38;;;-3.68;92.14
66547;BME280;53400;50.364;14.874;2023-03-01T06:31:17;99753.91;;;-3.57;90.86
66547;BME280;53400;50.364;14.874;2023-03-01T06:33:43;99747.84;;;-3.57;90.41
66547;BME280;53400;50.364;14.874;2023-03-01T06:36:10;99754.69;;;-3.66;90.34
66547;BME280;53400;50.364;14.874;2023-03-01T06:38:36;99749.63;;;-3.79;91.07
66547;BME280;53400;50.364;14.874;2023-03-01T06:41:03;99751.63;;;-3.71;91.45
66547;BME280;53400;50.364;14.874;2023-03-01T06:43:29;99748.38;;;-3.63;91.47
66547;BME280;53400;50.364;14.874;2023-03-01T06:45:55;99759.81;;;-3.64;91.60
66547;BME280;53400;50.364;14.874;2023-03-01T06:48:22;99757.28;;;-3.66;91.62
66547;BME280;53400;50.364;14.874;2023-03-01T06:50:48;99763.44;;;-3.35;91.24
66547;BME280;53400;50.364;14.874;2023-03-01T06:53:14;99754.31;;;-3.19;90.06
66547;BME280;53400;50.364;14.874;2023-03-01T06:55:40;99751.97;;;-3.22;89.56
66547;BME280;53400;50.364;14.874;2023-03-01T06:58:09;99754.31;;;-3.40;90.35
66547;BME280;53400;50.364;14.874;2023-03-01T07:00:35;99740.09;;;-2.96;89.21
66547;BME280;53400;50.364;14.874;2023-03-01T07:03:02;99738.97;;;-2.63;88.87
66547;BME280;53400;50.364;14.874;2023-03-01T07:05:30;99743.72;;;-2.47;87.47
66547;BME280;53400;50.364;14.874;2023-03-01T07:07:56;99738.78;;;-2.40;86.92
66547;BME280;53400;50.364;14.874;2023-03-01T07:10:22;99740.53;;;-2.41;89.20
66547;BME280;53400;50.364;14.874;2023-03-01T07:12:49;99749.13;;;-2.79;87.22
66547;BME280;53400;50.364;14.874;2023-03-01T07:15:16;99746.94;;;-2.74;89.26
66547;BME280;53400;50.364;14.874;2023-03-01T07:17:42;99746.44;;;-1.79;88.04
66547;BME280;53400;50.364;14.874;2023-03-01T07:20:11;99746.84;;;-1.83;86.89
66547;BME280;53400;50.364;14.874;2023-03-01T07:22:39;99748.63;;;-0.79;96.70
66547;BME280;53400;50.364;14.874;2023-03-01T07:25:05;99750.59;;;-0.08;89.45
66547;BME280;53400;50.364;14.874;2023-03-01T07:27:32;99750.25;;;-0.40;84.81
66547;BME280;53400;50.364;14.874;2023-03-01T07:29:58;99743.25;;;-1.44;80.99
66547;BME280;53400;50.364;14.874;2023-03-01T07:32:25;99743.53;;;-1.66;82.48
66547;BME280;53400;50.364;14.874;2023-03-01T07:34:51;99745.88;;;-1.92;83.51
66547;BME280;53400;50.364;14.874;2023-03-01T07:37:17;99741.47;;;-1.72;84.56
66547;BME280;53400;50.364;14.874;2023-03-01T07:39:43;99746.84;;;-2.03;86.46
66547;BME280;53400;50.364;14.874;2023-03-01T07:42:09;99748.78;;;-1.95;84.60
66547;BME280;53400;50.364;14.874;2023-03-01T07:44:36;99750.72;;;-1.78;85.31
66547;BME280;53400;50.364;14.874;2023-03-01T07:47:02;99744.09;;;-1.72;83.22
66547;BME280;53400;50.364;14.874;2023-03-01T07:49:30;99742.41;;;-2.12;85.10
66547;BME280;53400;50.364;14.874;2023-03-01T07:51:56;99745.22;;;-1.85;84.36
66547;BME280;53400;50.364;14.874;2023-03-01T07:54:21;99740.78;;;-2.03;84.35
66547;BME280;53400;50.364;14.874;2023-03-01T07:56:47;99737.31;;;-1.75;83.14
66547;BME280;53400;50.364;14.874;2023-03-01T07:59:13;99732.88;;;-1.65;81.40
66547;BME280;53400;50.364;14.874;2023-03-01T08:01:39;99725.84;;;-1.64;82.67
66547;BME280;53400;50.364;14.874;2023-03-01T08:04:05;99727.50;;;-1.63;81.45
66547;BME280;53400;50.364;14.874;2023-03-01T08:06:35;99729.59;;;-1.00;83.49
66547;BME280;53400;50.364;14.874;2023-03-01T08:09:01;99728.06;;;-0.65;81.73
66547;BME280;53400;50.364;14.874;2023-03-01T08:11:27;99721.16;;;-0.03;82.32
66547;BME280;53400;50.364;14.874;2023-03-01T08:13:54;99723.66;;;-0.02;79.72
66547;BME280;53400;50.364;14.874;2023-03-01T08:16:20;99726.78;;;-0.52;77.79
66547;BME280;53400;50.364;14.874;2023-03-01T08:18:46;99726.03;;;-0.44;78.39
66547;BME280;53400;50.364;14.874;2023-03-01T08:21:14;99716.25;;;-0.61;77.36
66547;BME280;53400;50.364;14.874;2023-03-01T08:23:42;99720.03;;;-0.36;76.86
66547;BME280;53400;50.364;14.874;2023-03-01T08:26:12;99709.72;;;-0.30;77.29
66547;BME280;53400;50.364;14.874;2023-03-01T08:28:39;99712.19;;;-0.74;77.05
66547;BME280;53400;50.364;14.874;2023-03-01T08:31:14;99707.06;;;-0.75;77.40
66547;BME280;53400;50.364;14.874;2023-03-01T08:33:40;99712.56;;;-0.68;78.92
66547;BME280;53400;50.364;14.874;2023-03-01T08:36:06;99705.50;;;-0.68;78.03
66547;BME280;53400;50.364;14.874;2023-03-01T08:38:32;99700.22;;;-0.40;76.32
66547;BME280;53400;50.364;14.874;2023-03-01T08:41:01;99711.53;;;-0.12;76.31
66547;BME280;53400;50.364;14.874;2023-03-01T08:43:27;99708.31;;;-0.06;75.05
66547;BME280;53400;50.364;14.874;2023-03-01T08:45:53;99707.56;;;-0.16;76.68
66547;BME280;53400;50.364;14.874;2023-03-01T08:48:19;99705.50;;;-0.40;78.13
66547;BME280;53400;50.364;14.874;2023-03-01T08:50:45;99710.72;;;-0.13;78.20
66547;BME280;53400;50.364;14.874;2023-03-01T08:53:10;99695.28;;;0.28;78.20
66547;BME280;53400;50.364;14.874;2023-03-01T08:55:37;99706.75;;;0.19;75.35
66547;BME280;53400;50.364;14.874;2023-03-01T08:58:04;99701.69;;;0.26;74.60
66547;BME280;53400;50.364;14.874;2023-03-01T09:00:30;99697.59;;;0.49;74.40
66547;BME280;53400;50.364;14.874;2023-03-01T09:02:56;99693.38;;;0.82;73.42
66547;BME280;53400;50.364;14.874;2023-03-01T09:05:22;99694.28;;;0.99;71.46
66547;BME280;53400;50.364;14.874;2023-03-01T09:07:48;99690.06;;;0.80;71.92
66547;BME280;53400;50.364;14.874;2023-03-01T09:10:14;99689.66;;;1.35;71.18
66547;BME280;53400;50.364;14.874;2023-03-01T09:12:39;99678.00;;;1.46;71.15
66547;BME280;53400;50.364;14.874;2023-03-01T09:15:08;99686.13;;;0.84;70.92
66547;BME280;53400;50.364;14.874;2023-03-01T09:17:34;99673.84;;;1.01;71.42
66547;BME280;53400;50.364;14.874;2023-03-01T09:20:00;99671.09;;;1.11;70.83
66547;BME280;53400;50.364;14.874;2023-03-01T09:22:26;99674.28;;;0.88;70.69
66547;BME280;53400;50.364;14.874;2023-03-01T09:24:52;99671.19;;;1.35;70.49
66547;BME280;53400;50.364;14.874;2023-03-01T09:27:18;99664.91;;;2.20;69.25
66547;BME280;53400;50.364;14.874;2023-03-01T09:29:45;99670.63;;;2.64;67.44
66547;BME280;53400;50.364;14.874;2023-03-01T09:32:12;99665.38;;;3.12;66.46
66547;BME280;53400;50.364;14.874;2023-03-01T09:34:38;99664.50;;;3.19;67.26
66547;BME280;53400;50.364;14.874;2023-03-01T09:37:24;99659.84;;;3.30;63.88
66547;BME280;53400;50.364;14.874;2023-03-01T09:39:50;99656.91;;;2.61;64.37
66547;BME280;53400;50.364;14.874;2023-03-01T09:42:15;99651.19;;;2.41;65.77
66547;BME280;53400;50.364;14.874;2023-03-01T09:44:45;99653.16;;;2.30;67.42
66547;BME280;53400;50.364;14.874;2023-03-01T09:47:17;99648.78;;;2.79;66.16
66547;BME280;53400;50.364;14.874;2023-03-01T09:49:45;99648.84;;;2.54;65.62
66547;BME280;53400;50.364;14.874;2023-03-01T09:52:20;99652.72;;;2.83;64.72
66547;BME280;53400;50.364;14.874;2023-03-01T09:54:53;99657.59;;;3.10;65.24
66547;BME280;53400;50.364;14.874;2023-03-01T09:57:27;99644.56;;;3.40;64.88
66547;BME280;53400;50.364;14.874;2023-03-01T10:00:01;99642.78;;;3.63;64.80
66547;BME280;53400;50.364;14.874;2023-03-01T10:02:38;99640.03;;;3.80;61.70
66547;BME280;53400;50.364;14.874;2023-03-01T10:05:13;99649.94;;;3.32;63.13
66547;BME280;53400;50.364;14.874;2023-03-01T10:07:45;99642.78;;;3.63;63.65
66547;BME280;53400;50.364;14.874;2023-03-01T10:10:23;99637.19;;;4.04;63.62
66547;BME280;53400;50.364;14.874;2023-03-01T10:12:52;99642.28;;;4.29;62.63
66547;BME280;53400;50.364;14.874;2023-03-01T10:15:25;99640.59;;;4.36;61.65
66547;BME280;53400;50.364;14.874;2023-03-01T10:18:01;99636.97;;;4.52;61.76
66547;BME280;53400;50.364;14.874;2023-03-01T10:20:30;99637.53;;;4.77;60.14
66547;BME280;53400;50.364;14.874;2023-03-01T10:23:00;99631.78;;;4.88;58.88
66547;BME280;53400;50.364;14.874;2023-03-01T10:25:40;99631.81;;;4.50;60.02
66547;BME280;53400;50.364;14.874;2023-03-01T10:28:16;99628.78;;;4.24;57.17
66547;BME280;53400;50.364;14.874;2023-03-01T10:30:43;99631.84;;;3.89;57.60
66547;BME280;53400;50.364;14.874;2023-03-01T10:33:16;99624.75;;;3.36;58.44
66547;BME280;53400;50.364;14.874;2023-03-01T10:35:44;99618.63;;;3.35;59.33
66547;BME280;53400;50.364;14.874;2023-03-01T10:38:11;99624.91;;;3.65;59.00
66547;BME280;53400;50.364;14.874;2023-03-01T10:40:51;99624.03;;;3.96;59.91
66547;BME280;53400;50.364;14.874;2023-03-01T10:43:17;99628.22;;;4.28;58.41
66547;BME280;53400;50.364;14.874;2023-03-01T10:45:44;99624.69;;;4.36;58.06
66547;BME280;53400;50.364;14.874;2023-03-01T10:48:16;99620.16;;;4.22;59.53
66547;BME280;53400;50.364;14.874;2023-03-01T10:50:45;99622.06;;;4.66;57.45
66547;BME280;53400;50.364;14.874;2023-03-01T10:53:33;99613.47;;;4.64;56.31
66547;BME280;53400;50.364;14.874;2023-03-01T10:56:02;99607.69;;;4.60;56.41
66547;BME280;53400;50.364;14.874;2023-03-01T10:58:29;99602.09;;;4.40;57.69
66547;BME280;53400;50.364;14.874;2023-03-01T11:00:57;99602.13;;;4.70;56.87
66547;BME280;53400;50.364;14.874;2023-03-01T11:03:27;99596.53;;;4.79;58.46
66547;BME280;53400;50.364;14.874;2023-03-01T11:05:59;99593.41;;;5.05;59.09
66547;BME280;53400;50.364;14.874;2023-03-01T11:08:42;99589.66;;;5.15;55.95
66547;BME280;53400;50.364;14.874;2023-03-01T11:11:22;99589.13;;;4.75;56.09
66547;BME280;53400;50.364;14.874;2023-03-01T11:13:54;99591.47;;;4.40;58.23
66547;BME280;53400;50.364;14.874;2023-03-01T11:16:31;99584.00;;;4.58;57.43
66547;BME280;53400;50.364;14.874;2023-03-01T11:19:18;99569.63;;;4.53;57.58
66547;BME280;53400;50.364;14.874;2023-03-01T11:21:56;99560.94;;;4.59;57.74
66547;BME280;53400;50.364;14.874;2023-03-01T11:24:29;99561.78;;;4.59;56.94
66547;BME280;53400;50.364;14.874;2023-03-01T11:26:56;99556.00;;;4.71;60.19
66547;BME280;53400;50.364;14.874;2023-03-01T11:29:28;99557.59;;;5.01;58.07
66547;BME280;53400;50.364;14.874;2023-03-01T11:32:01;99558.19;;;4.82;57.89
66547;BME280;53400;50.364;14.874;2023-03-01T11:34:38;99551.03;;;4.97;58.99
66547;BME280;53400;50.364;14.874;2023-03-01T11:37:14;99550.50;;;4.57;56.83
66547;BME280;53400;50.364;14.874;2023-03-01T11:39:47;99551.84;;;4.98;57.78
66547;BME280;53400;50.364;14.874;2023-03-01T11:42:19;99545.25;;;5.09;57.55
66547;BME280;53400;50.364;14.874;2023-03-01T11:44:48;99542.69;;;5.00;56.70
66547;BME280;53400;50.364;14.874;2023-03-01T11:47:31;99544.97;;;5.03;57.86
66547;BME280;53400;50.364;14.874;2023-03-01T11:50:18;99537.91;;;4.59;57.09
66547;BME280;53400;50.364;14.874;2023-03-01T11:52:56;99535.25;;;5.11;56.29
66547;BME280;53400;50.364;14.874;2023-03-01T11:55:41;99539.53;;;5.48;55.90
66547;BME280;53400;50.364;14.874;2023-03-01T11:58:25;99528.31;;;5.31;56.57
66547;BME280;53400;50.364;14.874;2023-03-01T12:00:56;99516.53;;;5.19;56.31
66547;BME280;53400;50.364;14.874;2023-03-01T12:03:30;99517.94;;;5.15;57.74
66547;BME280;53400;50.364;14.874;2023-03-01T12:06:11;99506.69;;;5.34;56.02
66547;BME280;53400;50.364;14.874;2023-03-01T12:08:41;99506.38;;;4.86;55.40
66547;BME280;53400;50.364;14.874;2023-03-01T12:11:20;99508.97;;;5.16;55.66
66547;BME280;53400;50.364;14.874;2023-03-01T12:14:09;99514.00;;;5.11;55.72
66547;BME280;53400;50.364;14.874;2023-03-01T12:16:55;99517.91;;;4.93;56.49
66547;BME280;53400;50.364;14.874;2023-03-01T12:19:43;99517.34;;;4.83;56.54
66547;BME280;53400;50.364;14.874;2023-03-01T12:22:29;99514.31;;;5.01;55.85
66547;BME280;53400;50.364;14.874;2023-03-01T12:25:14;99513.41;;;4.94;55.62
66547;BME280;53400;50.364;14.874;2023-03-01T12:33:43;99498.78;;;4.83;56.82
66547;BME280;53400;50.364;14.874;2023-03-01T12:36:29;99504.38;;;4.88;57.52
66547;BME280;53400;50.364;14.874;2023-03-01T12:39:11;99488.78;;;5.00;56.25
66547;BME280;53400;50.364;14.874;2023-03-01T12:41:52;99491.22;;;5.01;56.60
66547;BME280;53400;50.364;14.874;2023-03-01T12:44:30;99495.63;;;4.58;57.40
66547;BME280;53400;50.364;14.874;2023-03-01T12:47:07;99505.75;;;4.84;56.41
66547;BME280;53400;50.364;14.874;2023-03-01T12:49:41;99485.53;;;4.68;56.88
66547;BME280;53400;50.364;14.874;2023-03-01T12:52:15;99485.75;;;4.52;56.74
66547;BME280;53400;50.364;14.874;2023-03-01T12:54:45;99478.25;;;4.92;57.61
66547;BME280;53400;50.364;14.874;2023-03-01T12:57:17;99485.72;;;4.81;57.59
66547;BME280;53400;50.364;14.874;2023-03-01T12:59:51;99471.91;;;5.07;56.97
66547;BME280;53400;50.364;14.874;2023-03-01T13:02:27;99469.31;;;5.57;58.88
66547;BME280;53400;50.364;14.874;2023-03-01T13:05:06;99475.09;;;5.67;57.56
66547;BME280;53400;50.364;14.874;2023-03-01T13:07:37;99463.41;;;5.62;55.57
66547;BME280;53400;50.364;14.874;2023-03-01T13:10:21;99477.13;;;5.01;55.96